createdAt,value
2022-11-16T00:00:36.578Z,3.75
2022-11-16T00:03:04.386Z,4.65
2022-11-16T00:05:32.051Z,4.30
2022-11-16T00:07:59.705Z,4.03
2022-11-16T00:10:27.302Z,4.20
2022-11-16T00:13:13.822Z,4.22
2022-11-16T00:15:42.675Z,4.22
2022-11-16T00:18:10.279Z,4.55
2022-11-16T00:20:39.083Z,4.28
2022-11-16T00:23:06.666Z,4.20
2022-11-16T00:25:34.530Z,4.85
2022-11-16T00:28:02.133Z,4.32
2022-11-16T00:30:29.778Z,4.77
2022-11-16T00:33:02.078Z,5.03
2022-11-16T00:35:29.722Z,4.03
2022-11-16T00:37:57.396Z,4.33
2022-11-16T00:40:25.144Z,4.00
2022-11-16T00:42:53.328Z,3.75
2022-11-16T00:45:21.023Z,3.95
2022-11-16T00:47:48.730Z,4.20
2022-11-16T00:50:17.888Z,4.57
2022-11-16T00:52:45.560Z,4.60
2022-11-16T00:55:13.286Z,4.97
2022-11-16T00:57:40.887Z,4.90
2022-11-16T01:00:09.556Z,4.85
2022-11-16T01:02:37.168Z,5.47
2022-11-16T01:05:04.991Z,4.65
2022-11-16T01:07:35.180Z,4.75
2022-11-16T01:10:04.794Z,5.28
2022-11-16T01:12:31.534Z,5.25
2022-11-16T01:15:00.733Z,6.03
2022-11-16T01:17:29.458Z,5.47
2022-11-16T01:19:57.061Z,5.75
2022-11-16T01:22:24.777Z,6.22
2022-11-16T01:24:53.713Z,5.82
2022-11-16T01:27:21.446Z,6.28
2022-11-16T01:29:49.035Z,6.13
2022-11-16T01:32:17.647Z,5.85
2022-11-16T01:34:45.482Z,5.50
2022-11-16T01:37:23.485Z,6.28
2022-11-16T01:39:51.554Z,5.68
2022-11-16T01:42:21.722Z,5.55
2022-11-16T01:45:00.419Z,5.28
2022-11-16T01:47:28.513Z,5.57
2022-11-16T01:50:02.659Z,5.57
2022-11-16T01:52:33.920Z,5.95
2022-11-16T01:55:03.079Z,5.95
2022-11-16T01:57:43.315Z,5.93
2022-11-16T02:00:14.840Z,6.13
2022-11-16T02:02:48.701Z,5.70
2022-11-16T02:05:32.101Z,5.72
2022-11-16T02:08:19.425Z,5.93
2022-11-16T02:10:54.156Z,5.28
2022-11-16T02:13:29.149Z,6.03
2022-11-16T02:16:00.505Z,5.43
2022-11-16T02:18:36.617Z,6.13
2022-11-16T02:21:08.999Z,6.28
2022-11-16T02:23:46.654Z,5.80
2022-11-16T02:26:22.189Z,6.90
2022-11-16T02:28:56.108Z,6.53
2022-11-16T02:31:28.369Z,6.00
2022-11-16T02:33:59.456Z,6.20
2022-11-16T02:36:27.052Z,6.25
2022-11-16T02:38:56.663Z,5.90
2022-11-16T02:41:25.235Z,5.80
2022-11-16T02:43:56.388Z,6.68
2022-11-16T02:46:28.415Z,5.90
2022-11-16T02:48:58.296Z,5.53
2022-11-16T02:51:28.025Z,6.70
2022-11-16T02:54:00.974Z,6.33
2022-11-16T02:56:30.153Z,6.90
2022-11-16T02:58:58.715Z,6.27
2022-11-16T03:01:31.965Z,6.78
2022-11-16T03:04:02.502Z,6.50
2022-11-16T03:06:32.212Z,6.30
2022-11-16T03:09:01.397Z,6.70
2022-11-16T03:11:40.676Z,6.93
2022-11-16T03:14:11.071Z,6.17
2022-11-16T03:16:41.961Z,6.57
2022-11-16T03:19:11.616Z,6.63
2022-11-16T03:21:41.969Z,6.50
2022-11-16T03:24:09.869Z,6.90
2022-11-16T03:26:43.787Z,6.60
2022-11-16T03:29:15.181Z,6.72
2022-11-16T03:31:46.738Z,6.90
2022-11-16T03:34:20.309Z,7.17
2022-11-16T03:37:07.087Z,7.00
2022-11-16T03:39:39.512Z,7.07
2022-11-16T03:42:10.275Z,6.63
2022-11-16T03:44:39.051Z,7.07
2022-11-16T03:47:09.304Z,7.40
2022-11-16T03:49:37.026Z,7.60
2022-11-16T03:52:04.981Z,6.83
2022-11-16T03:54:34.092Z,6.23
2022-11-16T03:57:02.386Z,6.70
2022-11-16T03:59:30.049Z,6.60
2022-11-16T04:01:58.269Z,7.93
2022-11-16T04:04:37.539Z,6.97
2022-11-16T04:07:14.051Z,6.83
2022-11-16T04:09:52.988Z,7.37
2022-11-16T04:12:34.571Z,6.70
2022-11-16T04:15:11.331Z,7.03
2022-11-16T04:17:51.079Z,7.03
2022-11-16T04:20:33.959Z,6.77
2022-11-16T04:23:13.339Z,6.53
2022-11-16T04:25:41.389Z,6.50
2022-11-16T04:28:16.323Z,6.53
2022-11-16T04:30:59.444Z,5.47
2022-11-16T04:33:37.602Z,5.40
2022-11-16T04:36:20.378Z,4.83
2022-11-16T04:38:48.400Z,4.90
2022-11-16T04:41:30.289Z,6.00
2022-11-16T04:43:58.331Z,5.43
2022-11-16T04:46:36.597Z,5.90
2022-11-16T04:49:04.240Z,5.90
2022-11-16T04:51:33.658Z,5.97
2022-11-16T04:54:01.444Z,6.13
2022-11-16T04:56:29.079Z,6.77
2022-11-16T04:58:57.025Z,4.83
2022-11-16T05:01:44.663Z,5.43
2022-11-16T05:04:12.554Z,4.77
2022-11-16T05:06:41.581Z,5.53
2022-11-16T05:09:09.789Z,6.10
2022-11-16T05:11:37.455Z,7.13
2022-11-16T05:14:24.077Z,6.80
2022-11-16T05:16:51.868Z,6.23
2022-11-16T05:19:29.596Z,6.33
2022-11-16T05:22:00.920Z,6.43
2022-11-16T05:24:36.067Z,5.83
2022-11-16T05:27:05.829Z,7.23
2022-11-16T05:29:33.508Z,6.97
2022-11-16T05:32:02.244Z,5.97
2022-11-16T05:34:29.846Z,6.07
2022-11-16T05:36:57.978Z,5.93
2022-11-16T05:39:27.162Z,6.43
2022-11-16T05:41:55.384Z,6.17
2022-11-16T05:44:23.635Z,6.47
2022-11-16T05:46:51.691Z,7.70
2022-11-16T05:49:20.205Z,7.00
2022-11-16T05:51:48.254Z,6.93
2022-11-16T05:54:19.592Z,7.30
2022-11-16T05:56:49.118Z,6.65
2022-11-16T05:59:19.313Z,6.63
2022-11-16T06:01:50.011Z,6.57
2022-11-16T06:04:24.015Z,6.90
2022-11-16T06:06:51.844Z,6.37
2022-11-16T06:09:20.118Z,6.50
2022-11-16T06:11:50.740Z,6.67
2022-11-16T06:14:18.328Z,6.77
2022-11-16T06:16:46.141Z,6.60
2022-11-16T06:19:13.814Z,6.57
2022-11-16T06:21:41.916Z,7.20
2022-11-16T06:24:15.374Z,6.97
2022-11-16T06:26:43.671Z,7.27
2022-11-16T06:29:12.763Z,7.23
2022-11-16T06:31:40.673Z,7.00
2022-11-16T06:34:08.323Z,6.97
2022-11-16T06:36:36.165Z,6.57
2022-11-16T06:39:04.040Z,6.90
2022-11-16T06:41:41.114Z,6.30
2022-11-16T06:44:10.219Z,6.30
2022-11-16T06:46:43.611Z,5.87
2022-11-16T06:49:11.247Z,5.93
2022-11-16T06:51:38.954Z,6.07
2022-11-16T06:54:06.815Z,6.17
2022-11-16T06:56:34.806Z,6.17
2022-11-16T06:59:02.464Z,6.60
2022-11-16T07:01:30.763Z,7.23
2022-11-16T07:04:05.744Z,6.50
2022-11-16T07:06:34.186Z,7.10
2022-11-16T07:09:01.847Z,6.73
2022-11-16T07:11:32.431Z,7.47
2022-11-16T07:14:00.402Z,6.80
2022-11-16T07:16:29.254Z,6.80
2022-11-16T07:19:00.710Z,7.00
2022-11-16T07:21:32.019Z,6.60
2022-11-16T07:24:02.610Z,6.40
2022-11-16T07:26:31.175Z,7.00
2022-11-16T07:29:04.074Z,6.83
2022-11-16T07:31:51.796Z,6.57
2022-11-16T07:34:30.684Z,6.60
2022-11-16T07:37:07.787Z,5.90
2022-11-16T07:39:35.409Z,6.50
2022-11-16T07:42:06.051Z,6.70
2022-11-16T07:44:53.593Z,6.63
2022-11-16T07:47:21.300Z,6.65
2022-11-16T07:49:49.503Z,6.53
2022-11-16T07:52:21.881Z,6.93
2022-11-16T07:54:58.518Z,6.13
2022-11-16T07:57:28.301Z,6.78
2022-11-16T07:59:58.871Z,7.23
2022-11-16T08:02:27.504Z,6.57
2022-11-16T08:04:56.068Z,6.93
2022-11-16T08:07:28.524Z,6.40
2022-11-16T08:09:57.296Z,6.23
2022-11-16T08:12:24.981Z,7.10
2022-11-16T08:14:53.546Z,6.28
2022-11-16T08:17:21.542Z,7.13
2022-11-16T08:19:50.356Z,6.60
2022-11-16T08:22:17.960Z,6.53
2022-11-16T08:24:48.352Z,6.50
2022-11-16T08:27:17.460Z,6.47
2022-11-16T08:29:48.418Z,6.32
2022-11-16T08:32:16.551Z,6.57
2022-11-16T08:34:44.795Z,6.00
2022-11-16T08:37:12.500Z,7.27
2022-11-16T08:40:03.499Z,6.70
2022-11-16T08:42:37.239Z,6.90
2022-11-16T08:45:08.633Z,7.05
2022-11-16T08:47:36.243Z,6.82
2022-11-16T08:50:05.085Z,6.53
2022-11-16T08:52:33.293Z,5.93
2022-11-16T08:55:02.140Z,7.40
2022-11-16T08:57:30.896Z,6.80
2022-11-16T09:00:02.275Z,7.38
2022-11-16T09:02:30.265Z,7.20
2022-11-16T09:04:57.867Z,7.05
2022-11-16T09:07:25.626Z,7.65
2022-11-16T09:09:53.360Z,8.82
2022-11-16T09:12:20.991Z,7.28
2022-11-16T09:14:48.664Z,7.47
2022-11-16T09:17:22.820Z,7.47
2022-11-16T09:19:50.964Z,9.43
2022-11-16T09:22:18.570Z,8.77
2022-11-16T09:24:46.190Z,7.30
2022-11-16T09:27:14.946Z,7.07
2022-11-16T09:29:42.626Z,8.00
2022-11-16T09:32:10.381Z,6.97
2022-11-16T09:34:39.260Z,7.18
2022-11-16T09:37:07.988Z,6.85
2022-11-16T09:39:35.740Z,5.40
2022-11-16T09:42:11.059Z,5.93
2022-11-16T09:44:43.532Z,5.55
2022-11-16T09:47:15.747Z,4.90
2022-11-16T09:49:47.086Z,5.13
2022-11-16T09:52:19.689Z,4.70
2022-11-16T09:54:48.384Z,5.25
2022-11-16T09:57:18.796Z,5.63
2022-11-16T09:59:49.395Z,5.75
2022-11-16T10:02:20.384Z,5.47
2022-11-16T10:04:57.962Z,5.20
2022-11-16T10:07:28.730Z,5.53
2022-11-16T10:09:56.871Z,5.60
2022-11-16T10:12:27.681Z,5.03
2022-11-16T10:15:04.740Z,4.68
2022-11-16T10:17:39.252Z,4.63
2022-11-16T10:20:17.856Z,5.05
2022-11-16T10:22:50.751Z,4.50
2022-11-16T10:25:21.428Z,4.47
2022-11-16T10:27:58.492Z,4.68
2022-11-16T10:30:26.125Z,4.28
2022-11-16T10:32:55.422Z,4.38
2022-11-16T10:35:26.716Z,4.25
2022-11-16T10:37:54.304Z,3.58
2022-11-16T10:40:24.497Z,3.80
2022-11-16T10:42:58.483Z,3.53
2022-11-16T10:45:29.206Z,3.30
2022-11-16T10:47:59.309Z,3.58
2022-11-16T10:50:32.416Z,4.15
2022-11-16T10:53:00.113Z,3.17
2022-11-16T10:55:28.771Z,3.05
2022-11-16T10:57:57.721Z,2.92
2022-11-16T11:00:36.784Z,2.90
2022-11-16T11:03:04.531Z,2.90
2022-11-16T11:05:34.673Z,2.28
2022-11-16T11:08:04.416Z,2.00
2022-11-16T11:10:33.160Z,2.38
2022-11-16T11:13:03.407Z,1.27
2022-11-16T11:15:31.131Z,1.45
2022-11-16T11:18:08.987Z,1.40
2022-11-16T11:20:44.296Z,1.95
2022-11-16T11:23:14.945Z,1.92
2022-11-16T11:25:49.635Z,1.92
2022-11-16T11:28:20.040Z,1.35
2022-11-16T11:30:57.165Z,1.60
2022-11-16T11:33:25.532Z,1.27
2022-11-16T11:36:00.867Z,1.52
2022-11-16T11:38:28.487Z,1.27
2022-11-16T11:40:58.274Z,1.13
2022-11-16T11:43:26.427Z,1.52
2022-11-16T11:45:56.722Z,1.70
2022-11-16T11:48:29.602Z,1.10
2022-11-16T11:51:00.563Z,1.35
2022-11-16T11:53:36.900Z,1.35
2022-11-16T11:56:04.810Z,1.33
2022-11-16T11:58:33.397Z,1.40
2022-11-16T12:01:09.912Z,1.50
2022-11-16T12:03:44.768Z,1.70
2022-11-16T12:06:19.654Z,1.50
2022-11-16T12:08:55.973Z,1.45
2022-11-16T12:11:30.232Z,1.35
2022-11-16T12:14:03.113Z,1.02
2022-11-16T12:16:33.455Z,1.02
2022-11-16T12:19:06.934Z,0.80
2022-11-16T12:21:41.793Z,0.88
2022-11-16T12:24:15.903Z,0.80
2022-11-16T12:26:48.458Z,0.90
2022-11-16T12:29:24.077Z,0.90
2022-11-16T12:31:59.311Z,0.98
2022-11-16T12:34:36.560Z,1.17
2022-11-16T12:37:11.291Z,1.00
2022-11-16T12:39:41.347Z,1.08
2022-11-16T12:42:15.131Z,1.13
2022-11-16T12:44:54.982Z,0.98
2022-11-16T12:47:25.802Z,0.95
2022-11-16T12:50:01.311Z,0.80
2022-11-16T12:52:39.475Z,1.20
2022-11-16T12:55:25.743Z,0.88
2022-11-16T12:58:00.887Z,0.88
2022-11-16T13:00:29.691Z,1.05
2022-11-16T13:03:01.302Z,1.25
2022-11-16T13:05:41.031Z,0.90
2022-11-16T13:08:12.999Z,0.90
2022-11-16T13:10:45.432Z,0.80
2022-11-16T13:13:49.726Z,1.08
2022-11-16T13:16:02.991Z,1.13
2022-11-16T13:18:31.552Z,1.38
2022-11-16T13:21:02.399Z,1.00
2022-11-16T13:23:42.359Z,1.10
2022-11-16T13:26:12.687Z,1.45
2022-11-16T13:28:43.045Z,1.70
2022-11-16T13:31:13.315Z,1.73
2022-11-16T13:33:49.292Z,1.50
2022-11-16T13:36:28.488Z,0.88
2022-11-16T13:38:57.338Z,1.55
2022-11-16T13:41:28.780Z,1.27
2022-11-16T13:43:56.946Z,2.08
2022-11-16T13:46:54.021Z,1.60
2022-11-16T13:49:27.673Z,1.30
2022-11-16T13:51:56.405Z,1.48
2022-11-16T13:54:50.002Z,1.55
2022-11-16T13:57:22.163Z,1.20
2022-11-16T13:59:52.662Z,1.20
2022-11-16T14:02:29.670Z,1.08
2022-11-16T14:04:58.736Z,1.58
2022-11-16T14:07:35.230Z,1.30
2022-11-16T14:10:06.016Z,1.30
2022-11-16T14:12:48.547Z,1.45
2022-11-16T14:15:17.346Z,1.40
2022-11-16T14:17:54.790Z,1.40
2022-11-16T14:20:34.304Z,1.20
2022-11-16T14:23:07.783Z,1.30
2022-11-16T14:25:40.377Z,1.75
2022-11-16T14:28:14.204Z,1.05
2022-11-16T14:30:47.979Z,1.10
2022-11-16T14:33:24.634Z,1.10
2022-11-16T14:35:53.702Z,1.30
2022-11-16T14:38:25.301Z,1.30
2022-11-16T14:40:59.396Z,1.25
2022-11-16T14:43:29.103Z,1.13
2022-11-16T14:45:58.727Z,1.20
2022-11-16T14:48:26.844Z,1.30
2022-11-16T14:51:05.121Z,1.15
2022-11-16T14:53:34.384Z,1.30
2022-11-16T14:56:12.184Z,1.30
2022-11-16T14:58:40.401Z,1.15
2022-11-16T15:01:09.011Z,1.35
2022-11-16T15:03:39.681Z,1.75
2022-11-16T15:06:08.087Z,1.08
2022-11-16T15:08:38.221Z,1.20
2022-11-16T15:11:08.551Z,1.23
2022-11-16T15:13:37.753Z,1.35
2022-11-16T15:16:08.919Z,1.38
2022-11-16T15:18:36.690Z,1.52
2022-11-16T15:21:04.344Z,1.20
2022-11-16T15:23:32.375Z,1.52
2022-11-16T15:26:02.270Z,1.30
2022-11-16T15:28:31.641Z,1.55
2022-11-16T15:31:01.472Z,1.40
2022-11-16T15:33:30.356Z,1.50
2022-11-16T15:35:58.476Z,1.73
2022-11-16T15:38:28.635Z,1.55
2022-11-16T15:40:57.457Z,1.60
2022-11-16T15:43:26.193Z,1.70
2022-11-16T15:45:54.097Z,1.70
2022-11-16T15:48:23.794Z,1.50
2022-11-16T15:51:04.306Z,4.80
2022-11-16T15:53:34.808Z,3.63
2022-11-16T15:56:03.212Z,3.65
2022-11-16T15:58:33.061Z,4.07
2022-11-16T16:01:01.031Z,2.70
2022-11-16T16:03:31.684Z,2.70
2022-11-16T16:05:59.538Z,2.47
2022-11-16T16:08:29.833Z,2.42
2022-11-16T16:11:01.680Z,2.30
2022-11-16T16:13:57.483Z,1.67
2022-11-16T16:16:27.282Z,3.88
2022-11-16T16:18:58.060Z,3.95
2022-11-16T16:21:26.660Z,2.88
2022-11-16T16:23:55.370Z,2.20
2022-11-16T16:26:24.043Z,2.22
2022-11-16T16:28:51.887Z,1.65
2022-11-16T16:31:20.547Z,1.85
2022-11-16T16:33:48.192Z,1.80
2022-11-16T16:36:17.246Z,2.00
2022-11-16T16:38:44.944Z,1.63
2022-11-16T16:41:22.678Z,2.50
2022-11-16T16:43:51.723Z,2.23
2022-11-16T16:46:19.822Z,1.80
2022-11-16T16:48:47.444Z,1.83
2022-11-16T16:51:15.263Z,2.47
2022-11-16T16:53:44.189Z,2.07
2022-11-16T16:56:15.272Z,2.13
2022-11-16T16:58:43.060Z,2.17
2022-11-16T17:01:11.411Z,2.08
2022-11-16T17:03:39.038Z,2.10
2022-11-16T17:06:06.844Z,2.08
2022-11-16T17:08:35.135Z,1.92
2022-11-16T17:11:04.129Z,1.60
2022-11-16T17:13:32.043Z,1.70
2022-11-16T17:15:59.973Z,1.90
2022-11-16T17:18:27.942Z,1.70
2022-11-16T17:20:55.545Z,1.90
2022-11-16T17:23:23.350Z,1.70
2022-11-16T17:25:50.927Z,1.73
2022-11-16T17:28:19.863Z,1.77
2022-11-16T17:30:47.533Z,1.70
2022-11-16T17:33:15.151Z,2.13
2022-11-16T17:35:42.755Z,2.10
2022-11-16T17:38:12.297Z,1.90
2022-11-16T17:40:39.856Z,1.60
2022-11-16T17:43:07.438Z,1.90
2022-11-16T17:45:36.334Z,1.90
2022-11-16T17:48:03.990Z,1.67
2022-11-16T17:50:31.658Z,2.03
2022-11-16T17:52:59.251Z,2.10
2022-11-16T17:55:26.846Z,2.10
2022-11-16T17:57:54.724Z,2.07
2022-11-16T18:00:22.505Z,1.87
2022-11-16T18:02:51.420Z,1.93
2022-11-16T18:05:19.033Z,1.77
2022-11-16T18:07:46.960Z,1.93
2022-11-16T18:10:19.037Z,2.40
2022-11-16T18:12:47.074Z,2.33
2022-11-16T18:15:27.901Z,2.10
2022-11-16T18:17:57.957Z,1.97
2022-11-16T18:20:27.558Z,2.03
2022-11-16T18:22:55.127Z,3.67
2022-11-16T18:25:22.927Z,4.40
2022-11-16T18:27:51.315Z,4.17
2022-11-16T18:30:19.021Z,3.53
2022-11-16T18:32:46.613Z,4.27
2022-11-16T18:35:16.013Z,4.10
2022-11-16T18:37:43.856Z,3.43
2022-11-16T18:40:12.077Z,1.80
2022-11-16T18:42:39.924Z,2.10
2022-11-16T18:45:08.010Z,2.87
2022-11-16T18:47:35.582Z,1.93
2022-11-16T18:50:03.196Z,2.40
2022-11-16T18:52:32.075Z,1.90
2022-11-16T18:54:59.675Z,2.07
2022-11-16T18:57:27.547Z,3.77
2022-11-16T18:59:55.146Z,3.77
2022-11-16T19:02:22.950Z,2.47
2022-11-16T19:04:50.578Z,1.70
2022-11-16T19:07:18.482Z,1.53
2022-11-16T19:09:47.439Z,1.80
2022-11-16T19:12:14.982Z,1.80
2022-11-16T19:14:42.921Z,2.00
2022-11-16T19:17:10.685Z,1.90
2022-11-16T19:19:38.395Z,2.30
2022-11-16T19:22:05.988Z,1.73
2022-11-16T19:24:33.658Z,1.80
2022-11-16T19:27:02.611Z,1.63
2022-11-16T19:29:30.178Z,2.00
2022-11-16T19:31:57.755Z,1.63
2022-11-16T19:34:29.004Z,1.60
2022-11-16T19:37:00.677Z,1.60
2022-11-16T19:39:28.291Z,2.17
2022-11-16T19:41:55.874Z,2.13
2022-11-16T19:44:24.805Z,2.03
2022-11-16T19:46:53.119Z,2.07
2022-11-16T19:49:21.735Z,2.23
2022-11-16T19:51:49.598Z,2.07
2022-11-16T19:54:17.260Z,2.07
2022-11-16T19:56:49.349Z,2.20
2022-11-16T19:59:19.882Z,2.13
2022-11-16T20:01:49.092Z,1.67
2022-11-16T20:04:16.813Z,1.33
2022-11-16T20:06:44.514Z,1.70
2022-11-16T20:09:12.453Z,1.70
2022-11-16T20:11:41.189Z,2.20
2022-11-16T20:14:09.594Z,2.60
2022-11-16T20:16:39.275Z,2.20
2022-11-16T20:19:08.602Z,1.83
2022-11-16T20:21:37.192Z,1.70
2022-11-16T20:24:07.022Z,2.13
2022-11-16T20:26:35.563Z,1.87
2022-11-16T20:29:03.235Z,2.10
2022-11-16T20:31:31.994Z,1.90
2022-11-16T20:34:00.340Z,2.20
2022-11-16T20:36:30.202Z,1.90
2022-11-16T20:38:58.366Z,1.60
2022-11-16T20:41:26.964Z,1.97
2022-11-16T20:43:55.320Z,1.77
2022-11-16T20:46:23.912Z,1.53
2022-11-16T20:48:51.516Z,1.40
2022-11-16T20:51:19.882Z,1.53
2022-11-16T20:53:49.326Z,1.50
2022-11-16T20:56:17.583Z,1.50
2022-11-16T20:58:45.483Z,1.50
2022-11-16T21:01:14.095Z,1.33
2022-11-16T21:03:42.461Z,1.50
2022-11-16T21:06:10.076Z,1.07
2022-11-16T21:08:38.350Z,1.40
2022-11-16T21:11:11.704Z,1.37
2022-11-16T21:13:47.862Z,1.40
2022-11-16T21:16:16.323Z,1.20
2022-11-16T21:18:43.952Z,1.43
2022-11-16T21:21:13.147Z,1.40
2022-11-16T21:23:43.080Z,1.60
2022-11-16T21:26:14.160Z,1.50
2022-11-16T21:28:44.611Z,1.60
2022-11-16T21:31:13.301Z,1.90
2022-11-16T21:33:40.963Z,1.57
2022-11-16T21:36:10.811Z,1.40
2022-11-16T21:38:38.673Z,1.70
2022-11-16T21:41:06.507Z,1.67
2022-11-16T21:43:36.505Z,1.83
2022-11-16T21:46:05.113Z,1.60
2022-11-16T21:48:34.051Z,1.53
2022-11-16T21:51:05.389Z,1.30
2022-11-16T21:53:33.828Z,1.33
2022-11-16T21:56:01.933Z,1.20
2022-11-16T21:58:29.531Z,1.43
2022-11-16T22:00:59.252Z,1.13
2022-11-16T22:03:29.211Z,1.30
2022-11-16T22:06:11.584Z,1.30
2022-11-16T22:08:40.001Z,1.30
2022-11-16T22:11:07.983Z,1.30
2022-11-16T22:13:36.210Z,2.13
2022-11-16T22:16:06.407Z,1.90
2022-11-16T22:18:34.192Z,1.77
2022-11-16T22:21:01.977Z,1.70
2022-11-16T22:23:29.776Z,1.50
2022-11-16T22:26:01.059Z,1.60
2022-11-16T22:28:28.773Z,1.30
2022-11-16T22:30:59.901Z,1.60
2022-11-16T22:33:29.015Z,1.40
2022-11-16T22:35:56.749Z,1.40
2022-11-16T22:38:24.757Z,1.50
2022-11-16T22:40:52.790Z,1.60
2022-11-16T22:43:20.779Z,1.60
2022-11-16T22:45:48.452Z,1.57
2022-11-16T22:48:16.385Z,1.60
2022-11-16T22:50:45.302Z,1.57
2022-11-16T22:53:12.981Z,1.60
2022-11-16T22:55:40.912Z,1.77
2022-11-16T22:58:08.527Z,1.60
2022-11-16T23:00:40.576Z,2.00
2022-11-16T23:03:09.807Z,1.20
2022-11-16T23:05:37.427Z,1.20
2022-11-16T23:08:06.393Z,1.50
2022-11-16T23:10:53.929Z,1.40
2022-11-16T23:13:35.755Z,1.40
2022-11-16T23:16:04.699Z,1.40
2022-11-16T23:18:32.319Z,1.60
2022-11-16T23:21:09.742Z,1.50
2022-11-16T23:23:50.020Z,1.43
2022-11-16T23:26:31.638Z,1.40
2022-11-16T23:28:59.314Z,1.50
2022-11-16T23:31:27.036Z,1.37
2022-11-16T23:33:54.741Z,1.30
2022-11-16T23:36:22.379Z,1.67
2022-11-16T23:38:51.415Z,1.37
2022-11-16T23:41:28.299Z,1.20
2022-11-16T23:43:58.943Z,1.30
2022-11-16T23:46:26.878Z,1.60
2022-11-16T23:48:54.501Z,1.40
2022-11-16T23:51:23.336Z,1.47
2022-11-16T23:53:52.703Z,1.70
2022-11-16T23:56:20.831Z,1.40
2022-11-16T23:58:48.731Z,1.70
